Time;durP1;ratioP1;P1;durP2;ratioP2;P2;SDS_P1;SDS_P2;PMS_P1;PMS_P2;Temp;Humidity;BMP_temperature;BMP_pressure;BME280_temperature;BME280_humidity;BME280_pressure;Samples;Min_cycle;Max_cycle;Signal;HPM_P1;HPM_P2
2022/09/01 00:00:13;;;;;;;2.60;2.00;;;;;;;24.88;68.28;100506.41;4858915;29;20049;-81
2022/09/01 00:02:43;;;;;;;2.28;1.67;;;;;;;24.75;68.80;100505.84;4861753;29;20382;-81
2022/09/01 00:05:11;;;;;;;3.45;1.60;;;;;;;24.48;69.84;100505.06;4858759;29;20053;-81
2022/09/01 00:07:39;;;;;;;2.03;1.90;;;;;;;24.73;68.79;100513.00;4859722;29;20050;-81
2022/09/01 00:10:09;;;;;;;2.65;1.90;;;;;;;24.90;68.47;100515.25;4871361;29;20492;-81
2022/09/01 00:12:38;;;;;;;2.00;1.35;;;;;;;24.68;68.82;100520.53;4865826;29;20044;-82
2022/09/01 00:15:09;;;;;;;2.15;1.88;;;;;;;24.80;68.89;100505.50;4864443;29;20056;-82
2022/09/01 00:17:37;;;;;;;2.00;1.77;;;;;;;24.81;68.97;100509.13;4859840;29;20522;-81
2022/09/01 00:20:05;;;;;;;3.95;2.10;;;;;;;24.78;68.40;100504.28;4859849;29;20060;-81
2022/09/01 00:22:33;;;;;;;2.10;1.95;;;;;;;24.79;69.03;100503.88;4858993;29;20060;-81
2022/09/01 00:25:02;;;;;;;3.10;1.85;;;;;;;24.69;68.70;100510.16;4861705;29;20049;-81
2022/09/01 00:27:30;;;;;;;3.88;1.77;;;;;;;24.75;68.87;100502.22;4860637;29;20046;-81
2022/09/01 00:29:59;;;;;;;2.15;1.90;;;;;;;24.75;69.37;100497.44;4872916;29;20053;-81
2022/09/01 00:32:27;;;;;;;1.80;1.70;;;;;;;24.66;70.07;100499.69;4859064;29;20045;-81
2022/09/01 00:34:55;;;;;;;1.77;1.67;;;;;;;24.58;70.42;100495.22;4858626;29;20053;-81
2022/09/01 00:37:23;;;;;;;2.35;1.88;;;;;;;24.45;70.69;100498.22;4846673;29;20053;-81
2022/09/01 00:39:51;;;;;;;3.30;2.30;;;;;;;24.42;71.11;100502.59;4861007;29;20056;-81
2022/09/01 00:42:19;;;;;;;2.15;1.95;;;;;;;24.40;71.77;100502.16;4862313;29;20054;-81
2022/09/01 00:44:48;;;;;;;1.80;1.70;;;;;;;24.41;71.72;100500.97;4859002;29;20064;-81
2022/09/01 00:47:17;;;;;;;5.53;2.40;;;;;;;24.48;71.50;100496.69;4858955;29;20508;-82
2022/09/01 00:49:48;;;;;;;2.53;2.30;;;;;;;24.24;72.54;100491.13;4861024;29;20076;-81
2022/09/01 00:52:48;;;;;;;2.80;1.83;;;;;;;24.39;71.74;100494.16;4851565;29;20050;-81
2022/09/01 00:55:25;;;;;;;2.30;2.10;;;;;;;24.35;72.13;100496.91;4855663;29;20066;-81
2022/09/01 00:57:54;;;;;;;3.83;2.03;;;;;;;24.37;71.97;100500.13;4881088;29;20053;-81
2022/09/01 01:00:25;;;;;;;4.38;2.42;;;;;;;24.09;72.69;100506.88;4858556;29;20050;-81
2022/09/01 01:02:56;;;;;;;2.42;2.15;;;;;;;24.28;72.16;100507.97;4859019;29;20413;-81
2022/09/01 01:05:32;;;;;;;2.30;2.10;;;;;;;24.19;72.38;100496.25;4862212;29;20400;-81
2022/09/01 01:08:02;;;;;;;4.38;2.17;;;;;;;24.23;72.39;100497.09;4872803;29;20056;-81
2022/09/01 01:10:34;;;;;;;2.25;2.05;;;;;;;24.27;72.27;100501.56;4885533;29;20054;-80
2022/09/01 01:13:12;;;;;;;2.40;2.20;;;;;;;24.14;72.48;100508.53;4872084;29;20061;-80
2022/09/01 01:15:42;;;;;;;2.20;2.00;;;;;;;24.24;71.89;100507.13;4861013;29;20054;-81
2022/09/01 01:18:14;;;;;;;2.70;2.00;;;;;;;24.15;72.46;100499.78;4875997;29;20527;-81
2022/09/01 01:24:00;;;;;;;2.05;1.90;;;;;;;24.18;72.58;100505.81;4863156;29;20477;-81
2022/09/01 01:26:27;;;;;;;2.53;2.30;;;;;;;24.13;72.53;100507.75;4873870;29;20572;-81
2022/09/01 01:28:55;;;;;;;3.65;2.40;;;;;;;24.20;72.76;100506.25;4891548;29;20401;-80
2022/09/01 01:31:24;;;;;;;2.63;1.95;;;;;;;24.32;72.30;100508.81;4859883;29;20937;-81
2022/09/01 01:33:55;;;;;;;2.47;2.28;;;;;;;24.37;71.81;100511.31;4860751;29;20041;-80
2022/09/01 01:36:31;;;;;;;2.20;2.00;;;;;;;24.49;71.30;100515.06;4870501;29;20046;-80
2022/09/01 01:39:09;;;;;;;4.05;2.17;;;;;;;24.72;70.28;100506.56;4885791;29;20057;-81
2022/09/01 01:41:44;;;;;;;2.00;1.85;;;;;;;24.78;69.79;100513.44;4865218;29;20053;-80
2022/09/01 01:44:14;;;;;;;2.47;2.25;;;;;;;24.40;71.50;100506.94;4860476;29;20469;-81
2022/09/01 01:46:49;;;;;;;2.42;2.20;;;;;;;24.32;71.95;100508.81;4891077;29;20045;-81
2022/09/01 01:49:20;;;;;;;2.58;2.10;;;;;;;24.27;72.10;100512.75;4871989;29;20053;-80
2022/09/01 01:51:55;;;;;;;2.30;2.13;;;;;;;24.23;72.18;100502.69;4860112;29;20057;-80
2022/09/01 01:54:31;;;;;;;2.47;2.05;;;;;;;24.40;71.40;100510.53;4891211;29;20060;-80
2022/09/01 01:57:03;;;;;;;2.50;1.85;;;;;;;24.37;71.41;100510.47;4891887;29;20069;-81
2022/09/01 01:59:32;;;;;;;2.60;2.08;;;;;;;24.45;71.75;100511.41;4863721;29;20049;-80
2022/09/01 02:02:07;;;;;;;2.63;2.42;;;;;;;24.25;72.04;100503.13;4889196;29;20045;-80
2022/09/01 02:04:35;;;;;;;1.80;1.65;;;;;;;24.28;71.79;100502.38;4861619;29;20053;-80
2022/09/01 02:07:11;;;;;;;2.38;2.17;;;;;;;24.30;71.34;100505.63;4860746;29;20053;-81
2022/09/01 02:09:42;;;;;;;2.47;2.08;;;;;;;24.32;71.57;100508.00;4862575;29;20053;-80
2022/09/01 02:12:10;;;;;;;2.13;1.92;;;;;;;24.41;70.93;100517.75;4862094;29;20497;-81
2022/09/01 02:14:42;;;;;;;1.75;1.65;;;;;;;24.46;71.40;100507.41;4860822;29;21430;-80
2022/09/01 02:17:10;;;;;;;2.42;2.17;;;;;;;24.26;72.23;100510.34;4861744;29;20508;-80
2022/09/01 02:19:42;;;;;;;1.95;1.85;;;;;;;24.38;72.06;100503.69;4859334;29;20046;-81
2022/09/01 02:22:10;;;;;;;2.30;2.10;;;;;;;24.51;71.86;100504.28;4876159;29;20041;-81
2022/09/01 02:24:45;;;;;;;2.97;2.30;;;;;;;24.45;71.67;100503.00;4860957;29;20397;-80
2022/09/01 02:27:14;;;;;;;2.05;1.85;;;;;;;24.43;72.02;100503.38;4875422;29;20404;-81
2022/09/01 02:29:43;;;;;;;2.65;2.05;;;;;;;24.41;72.61;100500.97;4872556;29;20060;-81
2022/09/01 02:32:10;;;;;;;2.85;2.63;;;;;;;24.26;72.50;100493.56;4861630;29;20057;-81
2022/09/01 02:34:39;;;;;;;2.63;2.10;;;;;;;24.39;72.04;100497.75;4888165;29;20048;-81
2022/09/01 02:37:07;;;;;;;2.58;2.05;;;;;;;24.50;72.19;100499.88;4860172;29;20046;-81
2022/09/01 02:39:34;;;;;;;1.98;1.85;;;;;;;24.52;71.87;100500.31;4863304;29;20065;-81
2022/09/01 02:42:03;;;;;;;2.40;2.20;;;;;;;24.53;71.55;100499.13;4861807;29;20069;-81
2022/09/01 02:44:31;;;;;;;1.70;1.60;;;;;;;24.43;72.13;100495.81;4859534;29;20061;-80
2022/09/01 02:47:00;;;;;;;2.40;2.20;;;;;;;24.50;71.91;100503.50;4859866;29;20050;-80
2022/09/01 02:49:29;;;;;;;3.30;2.13;;;;;;;24.51;71.23;100507.09;4860688;29;20061;-80
2022/09/01 02:52:00;;;;;;;2.45;1.95;;;;;;;24.37;71.63;100504.88;4859093;29;20061;-81
2022/09/01 02:54:31;;;;;;;2.53;2.30;;;;;;;24.39;71.33;100497.75;4874339;29;20053;-80
2022/09/01 02:57:00;;;;;;;2.78;2.45;;;;;;;24.40;72.00;100506.94;4886584;29;20065;-81
2022/09/01 02:59:29;;;;;;;2.20;2.00;;;;;;;24.07;72.47;100503.66;4864056;29;20048;-80
2022/09/01 03:01:59;;;;;;;1.83;1.73;;;;;;;24.15;72.42;100496.19;4878774;29;20046;-80
2022/09/01 03:04:28;;;;;;;2.20;2.00;;;;;;;24.11;72.37;100496.16;4889070;29;20042;-80
2022/09/01 03:06:58;;;;;;;2.83;1.98;;;;;;;24.23;71.24;100488.69;4890026;29;20532;-81
2022/09/01 03:09:26;;;;;;;2.55;2.35;;;;;;;24.18;71.67;100480.66;4859870;29;20045;-81
2022/09/01 03:11:55;;;;;;;2.25;2.05;;;;;;;24.25;70.85;100489.94;4859410;29;20057;-80
2022/09/01 03:14:24;;;;;;;4.25;1.98;;;;;;;24.18;71.42;100492.63;4860210;29;20060;-80
2022/09/01 03:16:53;;;;;;;2.40;2.20;;;;;;;24.17;71.24;100482.66;4873932;29;20076;-80
2022/09/01 03:19:22;;;;;;;2.90;2.25;;;;;;;24.08;71.38;100488.50;4889245;29;20681;-80
2022/09/01 03:21:49;;;;;;;2.83;1.63;;;;;;;24.13;71.38;100485.38;4875130;29;20053;-80
2022/09/01 03:24:21;;;;;;;2.33;2.05;;;;;;;24.15;71.02;100483.00;4866254;29;21789;-80
2022/09/01 03:26:51;;;;;;;2.25;2.10;;;;;;;24.16;71.07;100483.81;4876804;29;20056;-80
2022/09/01 03:29:19;;;;;;;2.20;2.00;;;;;;;24.08;71.71;100488.50;4863903;29;20092;-80
2022/09/01 03:31:48;;;;;;;3.38;2.58;;;;;;;24.01;71.83;100482.78;4856150;29;20046;-80
2022/09/01 03:34:22;;;;;;;2.97;2.08;;;;;;;24.01;71.45;100471.59;4859278;29;20405;-80
2022/09/01 03:36:53;;;;;;;2.10;1.90;;;;;;;24.16;70.49;100475.44;4858250;29;20069;-80
2022/09/01 03:39:28;;;;;;;1.40;1.30;;;;;;;24.24;70.61;100476.38;4876992;29;20041;-81
2022/09/01 03:41:57;;;;;;;2.35;1.80;;;;;;;24.16;70.83;100483.81;4858191;29;20064;-80
2022/09/01 03:44:26;;;;;;;2.67;2.38;;;;;;;24.08;71.45;100482.91;4872905;29;20519;-80
2022/09/01 03:46:57;;;;;;;2.20;2.00;;;;;;;24.08;72.58;100482.91;4858859;29;20038;-80
2022/09/01 03:49:26;;;;;;;2.22;2.03;;;;;;;24.12;71.39;100483.78;4860054;29;20054;-80
2022/09/01 03:51:57;;;;;;;2.47;2.28;;;;;;;24.11;72.57;100476.59;4872783;29;20056;-80
2022/09/01 03:54:29;;;;;;;3.50;2.40;;;;;;;24.18;73.25;100486.25;4858837;29;20053;-80
2022/09/01 03:56:58;;;;;;;2.60;2.30;;;;;;;24.22;74.44;100481.50;4889104;29;20497;-81
2022/09/01 03:59:28;;;;;;;3.35;2.40;;;;;;;24.21;73.94;100472.31;4859421;29;20455;-80
2022/09/01 04:01:58;;;;;;;2.80;2.50;;;;;;;24.20;74.24;100478.28;4870380;29;20408;-81
2022/09/01 04:04:30;;;;;;;2.72;2.53;;;;;;;24.22;74.93;100481.50;4858706;29;20512;-81
2022/09/01 04:07:01;;;;;;;2.90;2.45;;;;;;;24.15;75.21;100485.81;4873741;29;20049;-81
2022/09/01 04:09:32;;;;;;;2.65;2.45;;;;;;;24.14;75.69;100475.81;4857857;29;20049;-80
2022/09/01 04:12:06;;;;;;;2.97;2.53;;;;;;;24.12;75.79;100486.56;4889542;29;20060;-81
2022/09/01 04:14:36;;;;;;;2.78;2.55;;;;;;;24.12;76.22;100466.19;4869822;29;20056;-80
2022/09/01 04:19:57;;;;;;;2.75;2.55;;;;;;;24.00;76.12;100487.53;4888179;29;20070;-81
2022/09/01 04:22:28;;;;;;;6.72;2.85;;;;;;;23.98;75.22;100475.94;4857531;29;20062;-81
2022/09/01 04:24:58;;;;;;;2.97;2.10;;;;;;;24.15;75.70;100491.41;4863521;29;20429;-81
2022/09/01 04:27:27;;;;;;;2.60;2.40;;;;;;;24.15;76.11;100493.41;4857198;29;20057;-80
2022/09/01 04:29:55;;;;;;;4.32;2.40;;;;;;;24.24;74.53;100491.13;4869301;29;20053;-80
2022/09/01 04:32:27;;;;;;;3.63;2.63;;;;;;;24.18;74.40;100491.84;4873411;29;20064;-81
2022/09/01 04:34:59;;;;;;;2.38;2.17;;;;;;;23.88;74.67;100496.94;4862260;29;20050;-81
2022/09/01 04:37:27;;;;;;;2.72;1.77;;;;;;;23.57;74.06;100492.41;4883535;29;20049;-79
2022/09/01 04:39:59;;;;;;;2.30;2.10;;;;;;;23.54;74.93;100488.38;4860613;29;20413;-81
2022/09/01 04:42:31;;;;;;;2.15;1.95;;;;;;;23.43;72.27;100481.78;4873813;29;20049;-81
2022/09/01 04:45:02;;;;;;;2.22;1.70;;;;;;;23.58;72.53;100486.47;4870178;29;20045;-78
2022/09/01 04:47:44;;;;;;;2.88;1.70;;;;;;;24.09;70.33;100467.75;4855648;29;20054;-75
2022/09/01 04:50:17;;;;;;;2.10;1.80;;;;;;;24.48;69.01;100477.09;4854923;29;20064;-75
2022/09/01 04:53:05;;;;;;;3.70;1.75;;;;;;;24.37;68.14;100477.75;4870093;29;20062;-75
2022/09/01 04:55:44;;;;;;;2.15;1.95;;;;;;;24.53;67.93;100479.53;4838577;29;20065;-75
2022/09/01 04:58:19;;;;;;;2.15;1.73;;;;;;;24.69;66.53;100477.38;4871864;29;20053;-75
2022/09/01 05:00:54;;;;;;;1.75;1.65;;;;;;;24.73;65.19;100469.00;4864608;29;20060;-76
2022/09/01 05:03:23;;;;;;;;;;;;;;;24.53;66.29;100471.16;4873670;29;20045;-76
2022/09/01 05:06:18;;;;;;;3.35;2.45;;;;;;;24.61;66.23;100470.06;4876500;29;19928;-77
2022/09/01 05:08:51;;;;;;;1.90;1.80;;;;;;;24.68;64.28;100469.38;4864035;29;20062;-78
2022/09/01 05:11:37;;;;;;;1.52;1.42;;;;;;;24.85;63.57;100461.59;4853623;29;20054;-77
2022/09/01 05:14:18;;;;;;;2.13;1.48;;;;;;;24.86;63.99;100464.00;4874455;29;20416;-77
2022/09/01 05:16:47;;;;;;;1.75;1.65;;;;;;;24.89;63.25;100470.84;4857618;29;20417;-74
2022/09/01 05:19:19;;;;;;;1.60;1.40;;;;;;;24.90;63.85;100464.88;4872966;29;20050;-76
2022/09/01 05:21:49;;;;;;;1.48;1.38;;;;;;;25.00;62.81;100473.75;4873429;29;20060;-76
2022/09/01 05:24:20;;;;;;;1.48;1.27;;;;;;;24.94;63.05;100474.09;4859283;29;20123;-76
2022/09/01 05:26:49;;;;;;;2.25;1.40;;;;;;;24.89;64.12;100466.06;4857773;29;20056;-77
2022/09/01 05:29:17;;;;;;;2.53;1.80;;;;;;;24.68;64.74;100472.97;4857716;29;20065;-76
2022/09/01 05:31:48;;;;;;;2.15;1.92;;;;;;;24.70;64.37;100464.97;4858167;29;20052;-75
2022/09/01 05:34:25;;;;;;;5.68;2.22;;;;;;;24.88;64.30;100464.44;4862636;29;20045;-75
2022/09/01 05:36:56;;;;;;;2.35;1.95;;;;;;;25.13;62.77;100472.31;4863509;29;20065;-75
2022/09/01 05:39:26;;;;;;;7.10;1.90;;;;;;;25.02;63.50;100465.81;4886177;29;20049;-76
2022/09/01 05:41:54;;;;;;;1.88;1.55;;;;;;;25.05;64.14;100468.63;4858752;29;20033;-75
2022/09/01 05:44:43;;;;;;;2.38;1.65;;;;;;;25.06;63.71;100473.03;4858320;29;20069;-76
2022/09/01 05:47:15;;;;;;;2.22;1.95;;;;;;;24.97;63.63;100478.13;4859677;29;20053;-77
2022/09/01 05:49:52;;;;;;;1.48;1.33;;;;;;;25.35;61.90;100469.72;4873064;29;20048;-77
2022/09/01 05:52:24;;;;;;;3.22;1.58;;;;;;;25.36;61.71;100474.13;4873228;29;20045;-77
2022/09/01 05:54:56;;;;;;;5.10;1.52;;;;;;;25.22;62.26;100481.22;4873036;29;20054;-77
2022/09/01 05:57:25;;;;;;;3.15;2.00;;;;;;;25.31;61.09;100482.91;4873238;29;20057;-77
2022/09/01 06:00:11;;;;;;;1.95;1.52;;;;;;;25.21;62.18;100482.41;4846702;29;20049;-77
2022/09/01 06:02:42;;;;;;;4.15;2.13;;;;;;;25.38;61.59;100482.97;4859835;29;20049;-77
2022/09/01 06:05:16;;;;;;;1.83;1.45;;;;;;;25.24;61.36;100492.03;4861164;29;20042;-76
2022/09/01 06:07:46;;;;;;;2.40;1.55;;;;;;;25.37;60.01;100492.56;4861955;29;20057;-77
2022/09/01 06:10:14;;;;;;;1.90;1.50;;;;;;;25.35;61.37;100504.16;4876234;29;20061;-77
2022/09/01 06:12:44;;;;;;;1.75;1.42;;;;;;;25.52;60.96;100495.50;4855668;29;20508;-77
2022/09/01 06:15:19;;;;;;;2.33;1.50;;;;;;;25.23;60.88;100505.22;4887879;29;20049;-77
2022/09/01 06:17:52;;;;;;;4.75;1.58;;;;;;;25.17;61.14;100517.94;4857014;29;20052;-76
2022/09/01 06:20:28;;;;;;;1.45;1.30;;;;;;;25.11;61.36;100513.88;4887875;29;20041;-76
2022/09/01 06:22:59;;;;;;;2.40;1.50;;;;;;;25.30;61.19;100514.88;4858742;29;20049;-77
2022/09/01 06:25:36;;;;;;;2.20;1.98;;;;;;;25.37;60.96;100514.97;4859582;29;20050;-77
2022/09/01 06:28:07;;;;;;;1.55;1.40;;;;;;;25.50;60.42;100510.72;4872612;29;20584;-77
2022/09/01 06:30:36;;;;;;;2.78;1.80;;;;;;;25.12;60.54;100511.91;4858060;29;20060;-77
2022/09/01 06:33:10;;;;;;;1.98;1.80;;;;;;;25.47;60.18;100511.47;4872104;29;20057;-77
2022/09/01 06:35:43;;;;;;;3.50;1.35;;;;;;;25.65;59.33;100519.28;4859361;29;20382;-77
2022/09/01 06:38:16;;;;;;;3.00;1.55;;;;;;;25.58;59.37;100522.00;4857010;29;20116;-77
2022/09/01 06:40:47;;;;;;;8.13;2.53;;;;;;;25.43;60.07;100529.44;4859477;29;20037;-77
2022/09/01 06:43:21;;;;;;;6.25;1.90;;;;;;;25.69;59.17;100531.34;4861119;29;20053;-77
2022/09/01 06:45:53;;;;;;;2.38;1.55;;;;;;;25.65;58.97;100541.69;4872941;29;20045;-77
2022/09/01 06:48:25;;;;;;;2.13;1.30;;;;;;;25.61;58.71;100530.44;4874080;29;20489;-77
2022/09/01 06:51:04;;;;;;;1.92;1.38;;;;;;;25.73;58.36;100537.78;4887736;29;20060;-77
2022/09/01 06:53:55;;;;;;;1.70;1.52;;;;;;;25.66;58.35;100546.09;4889954;29;20385;-77
2022/09/01 06:56:30;;;;;;;2.40;1.52;;;;;;;25.67;57.85;100539.31;4860775;29;20053;-77
2022/09/01 06:59:04;;;;;;;5.50;1.33;;;;;;;25.74;57.61;100545.00;4857856;29;20068;-77
2022/09/01 07:01:36;;;;;;;1.33;1.23;;;;;;;25.92;57.77;100557.56;4856771;29;20128;-76
2022/09/01 07:04:08;;;;;;;2.60;1.35;;;;;;;25.86;57.42;100562.72;4858859;29;20061;-76
2022/09/01 07:06:43;;;;;;;2.65;1.60;;;;;;;25.92;57.66;100571.56;4880370;29;20397;-76
2022/09/01 07:09:47;;;;;;;1.27;1.17;;;;;;;25.96;57.00;100573.19;4858705;29;20413;-76
2022/09/01 07:12:46;;;;;;;1.63;1.45;;;;;;;26.12;56.17;100574.94;4857675;29;20045;-77
2022/09/01 07:15:43;;;;;;;1.27;1.02;;;;;;;25.74;54.96;100583.41;4858054;29;20037;-77
2022/09/01 07:18:40;;;;;;;1.70;1.13;;;;;;;25.86;55.59;100579.53;4840018;29;20713;-77
2022/09/01 07:21:11;;;;;;;1.52;1.42;;;;;;;25.89;54.60;100587.16;4854582;29;20485;-76
2022/09/01 07:24:05;;;;;;;0.90;0.90;;;;;;;25.75;54.67;100579.41;4837748;29;20524;-77
2022/09/01 07:27:15;;;;;;;2.03;0.93;;;;;;;25.79;54.57;100599.09;4857326;29;20046;-76
2022/09/01 07:29:46;;;;;;;2.45;1.48;;;;;;;26.03;57.67;100595.72;4856295;29;20050;-77
2022/09/01 07:32:16;;;;;;;2.90;1.80;;;;;;;26.20;59.86;100592.66;4838639;29;20053;-77
2022/09/01 07:35:07;;;;;;;1.92;1.67;;;;;;;26.25;58.77;100597.94;4868753;29;20061;-76
2022/09/01 07:37:39;;;;;;;1.15;1.05;;;;;;;26.06;56.77;100593.31;4857975;29;20049;-76
2022/09/01 07:40:27;;;;;;;2.17;1.10;;;;;;;25.65;55.27;100603.34;4859070;29;20481;-76
2022/09/01 07:43:43;;;;;;;1.55;1.35;;;;;;;25.77;55.30;100597.44;4858957;29;20512;-76
2022/09/01 07:46:15;;;;;;;1.27;1.00;;;;;;;26.02;55.03;100605.31;4859285;29;20052;-76
2022/09/01 07:49:05;;;;;;;0.80;0.80;;;;;;;25.91;53.41;100598.81;4869182;29;20053;-76
2022/09/01 07:51:53;;;;;;;1.13;1.00;;;;;;;26.13;53.72;100594.19;4854512;29;20398;-77
2022/09/01 07:54:22;;;;;;;1.70;0.98;;;;;;;26.14;51.99;100595.81;4887854;29;20041;-77
2022/09/01 07:57:03;;;;;;;0.93;0.80;;;;;;;26.17;52.85;100588.63;4868756;29;20789;-76
2022/09/01 07:59:37;;;;;;;1.55;0.85;;;;;;;26.07;52.89;100592.13;4859853;29;20060;-77
2022/09/01 08:02:17;;;;;;;0.90;0.77;;;;;;;26.26;52.45;100588.31;4874368;29;20049;-77
2022/09/01 08:04:47;;;;;;;0.95;0.90;;;;;;;26.39;52.26;100588.84;4873126;29;20046;-77
2022/09/01 08:07:17;;;;;;;2.00;1.15;;;;;;;26.48;51.96;100600.50;4858539;29;20065;-77
2022/09/01 08:09:45;;;;;;;1.35;0.68;;;;;;;26.69;51.36;100599.84;4850908;29;20045;-77
2022/09/01 08:12:15;;;;;;;3.08;1.05;;;;;;;26.73;50.61;100599.84;4851708;29;20556;-77
2022/09/01 08:14:52;;;;;;;0.60;0.60;;;;;;;26.75;49.94;100605.09;4882933;29;20061;-77
2022/09/01 08:17:41;;;;;;;2.15;0.70;;;;;;;26.68;49.84;100594.63;4857499;29;20373;-78
2022/09/01 08:20:29;;;;;;;1.58;0.77;;;;;;;26.77;49.91;100600.69;4858561;29;20049;-75
2022/09/01 08:23:09;;;;;;;0.52;0.52;;;;;;;26.67;50.16;100598.63;4872191;29;20077;-76
2022/09/01 08:25:39;;;;;;;0.60;0.60;;;;;;;26.49;48.90;100592.91;4887346;29;20045;-76
2022/09/01 08:28:08;;;;;;;0.60;0.57;;;;;;;26.37;49.12;100588.41;4859247;29;20049;-77
2022/09/01 08:30:41;;;;;;;0.65;0.57;;;;;;;26.50;49.27;100592.53;4873464;29;20042;-77
2022/09/01 08:33:21;;;;;;;2.05;0.60;;;;;;;26.52;49.06;100598.53;4873793;29;20049;-76
2022/09/01 08:35:50;;;;;;;3.75;0.88;;;;;;;26.83;48.95;100601.94;4855949;29;20057;-77
2022/09/01 08:38:18;;;;;;;1.92;0.60;;;;;;;26.78;48.76;100604.31;4848406;29;20486;-77
2022/09/01 08:40:54;;;;;;;0.88;0.77;;;;;;;26.66;48.67;100602.63;4859280;29;20504;-76
2022/09/01 08:44:02;;;;;;;1.25;0.60;;;;;;;26.72;49.14;100601.06;4882785;29;20045;-77
2022/09/01 08:46:34;;;;;;;0.80;0.50;;;;;;;26.61;48.48;100608.59;4887515;29;20382;-76
2022/09/01 08:49:18;;;;;;;0.43;0.43;;;;;;;26.76;49.00;100606.69;4859341;29;20042;-76
2022/09/01 08:52:20;;;;;;;1.92;0.70;;;;;;;26.92;48.38;100598.81;4859256;29;20045;-77
2022/09/01 08:54:52;;;;;;;3.05;0.93;;;;;;;26.90;48.41;100600.38;4889036;29;20824;-76
2022/09/01 08:57:26;;;;;;;1.02;0.80;;;;;;;27.14;48.47;100600.91;4871675;29;20049;-76
2022/09/01 09:00:24;;;;;;;0.95;0.50;;;;;;;27.35;47.42;100609.44;4871582;29;20053;-77
2022/09/01 09:03:01;;;;;;;0.63;0.63;;;;;;;27.36;47.09;100602.63;4873155;29;20041;-77
2022/09/01 09:05:42;;;;;;;0.95;0.80;;;;;;;27.50;46.53;100615.91;4858473;29;20404;-77
2022/09/01 09:08:45;;;;;;;1.85;0.60;;;;;;;27.24;47.84;100614.22;4856684;29;20057;-76
2022/09/01 09:11:41;;;;;;;0.47;0.47;;;;;;;27.28;47.29;100611.41;4858985;29;20053;-77
2022/09/01 09:14:18;;;;;;;0.47;0.47;;;;;;;27.31;47.31;100610.59;4858891;29;20072;-76
2022/09/01 09:16:49;;;;;;;1.58;0.52;;;;;;;27.22;47.14;100611.78;4851470;29;20060;-77
2022/09/01 09:19:30;;;;;;;1.40;0.60;;;;;;;27.28;47.10;100615.03;4857946;29;20064;-77
2022/09/01 09:22:03;;;;;;;0.40;0.35;;;;;;;27.20;46.99;100614.19;4858442;29;20045;-77
2022/09/01 09:24:51;;;;;;;0.47;0.47;;;;;;;27.31;46.71;100625.47;4854241;29;20397;-78
2022/09/01 09:27:19;;;;;;;0.30;0.30;;;;;;;26.94;47.35;100618.06;4853918;29;20196;-77
2022/09/01 09:29:53;;;;;;;2.55;0.55;;;;;;;26.70;47.26;100615.47;4857795;29;20064;-77
2022/09/01 09:32:25;;;;;;;0.70;0.40;;;;;;;26.44;47.69;100613.69;4854069;29;20049;-76
2022/09/01 09:35:23;;;;;;;0.55;0.55;;;;;;;26.76;47.34;100621.53;4857458;29;20425;-78
2022/09/01 09:37:52;;;;;;;0.45;0.45;;;;;;;27.15;46.57;100623.00;4856565;29;20496;-77
2022/09/01 09:40:24;;;;;;;0.55;0.45;;;;;;;27.15;47.14;100625.00;4860932;29;20049;-76
2022/09/01 09:42:55;;;;;;;0.80;0.40;;;;;;;27.17;46.79;100620.59;4857700;29;20622;-77
2022/09/01 09:45:23;;;;;;;0.32;0.32;;;;;;;27.12;47.14;100622.97;4858707;29;20049;-76
2022/09/01 09:47:53;;;;;;;0.43;0.43;;;;;;;27.28;45.71;100603.81;4861129;29;20053;-76
2022/09/01 09:50:27;;;;;;;0.77;0.40;;;;;;;27.10;46.65;100604.53;4860970;29;20053;-76
2022/09/01 09:53:16;;;;;;;1.33;0.57;;;;;;;27.49;47.15;100608.69;4856781;29;20064;-76
2022/09/01 09:55:56;;;;;;;0.50;0.47;;;;;;;27.84;46.28;100612.00;4854356;29;20069;-77
2022/09/01 09:58:33;;;;;;;0.40;0.40;;;;;;;27.83;45.52;100599.16;4861531;29;20042;-77
2022/09/01 10:01:13;;;;;;;0.80;0.68;;;;;;;27.88;45.60;100595.13;4855391;29;20053;-76
2022/09/01 10:03:53;;;;;;;1.20;0.57;;;;;;;28.22;45.40;100596.75;4859547;29;20046;-77
2022/09/01 10:06:37;;;;;;;0.40;0.40;;;;;;;28.33;44.91;100597.59;4859085;29;20046;-77
2022/09/01 10:09:07;;;;;;;1.85;0.40;;;;;;;28.54;45.17;100587.53;4856994;29;20454;-76
2022/09/01 10:11:42;;;;;;;0.50;0.50;;;;;;;28.65;44.45;100581.88;4847570;29;20050;-77
2022/09/01 10:14:18;;;;;;;1.65;0.68;;;;;;;28.46;44.15;100589.56;4824329;29;20087;-77
2022/09/01 10:17:16;;;;;;;0.73;0.73;;;;;;;28.43;43.14;100588.34;4856801;29;20053;-76
2022/09/01 10:19:54;;;;;;;0.70;0.63;;;;;;;28.62;43.76;100580.66;4860265;29;20053;-76
2022/09/01 10:22:24;;;;;;;0.55;0.55;;;;;;;29.00;42.75;100573.75;4857837;29;20049;-77
2022/09/01 10:24:52;;;;;;;0.43;0.43;;;;;;;28.94;41.75;100579.81;4859351;29;20492;-76
2022/09/01 10:27:24;;;;;;;2.25;0.50;;;;;;;29.01;42.27;100569.72;4859210;29;20065;-76
2022/09/01 10:30:00;;;;;;;0.43;0.43;;;;;;;29.16;41.79;100568.47;4875311;29;20528;-76
2022/09/01 10:32:59;;;;;;;0.30;0.30;;;;;;;28.82;42.25;100568.94;4863672;29;20038;-76
2022/09/01 10:35:44;;;;;;;1.33;0.50;;;;;;;29.08;42.21;100578.16;4860176;29;20060;-76
2022/09/01 10:38:20;;;;;;;0.40;0.40;;;;;;;29.16;42.37;100570.47;4853989;29;20508;-76
2022/09/01 10:41:05;;;;;;;0.50;0.50;;;;;;;29.16;41.59;100567.63;4856395;29;20045;-76
2022/09/01 10:43:42;;;;;;;0.82;0.55;;;;;;;29.49;41.49;100574.78;4861556;29;20066;-76
2022/09/01 10:46:18;;;;;;;1.88;0.80;;;;;;;29.48;40.87;100575.16;4854456;29;20049;-75
2022/09/01 10:48:54;;;;;;;0.85;0.70;;;;;;;29.23;40.98;100570.44;4858152;29;20405;-76
2022/09/01 10:51:28;;;;;;;0.60;0.50;;;;;;;29.54;41.55;100575.53;4859137;29;20393;-76
2022/09/01 10:54:05;;;;;;;0.40;0.40;;;;;;;29.69;41.47;100571.41;4857860;29;20057;-76
2022/09/01 10:56:52;;;;;;;0.50;0.50;;;;;;;29.68;40.88;100569.81;4859357;29;20057;-76
2022/09/01 10:59:28;;;;;;;0.60;0.60;;;;;;;29.63;40.60;100562.56;4860064;29;20053;-76
2022/09/01 11:02:13;;;;;;;1.65;0.80;;;;;;;29.31;40.15;100568.38;4859927;29;20064;-76
2022/09/01 11:05:01;;;;;;;0.57;0.57;;;;;;;29.57;39.34;100569.09;4858187;29;20081;-76
2022/09/01 11:07:34;;;;;;;0.57;0.57;;;;;;;29.15;40.70;100572.50;4859903;29;20065;-76
2022/09/01 11:10:32;;;;;;;0.43;0.43;;;;;;;29.49;40.72;100569.13;4885434;29;20037;-76
2022/09/01 11:13:22;;;;;;;0.50;0.38;;;;;;;29.32;40.46;100567.97;4855103;29;20049;-76
2022/09/01 11:15:50;;;;;;;0.60;0.60;;;;;;;29.32;40.99;100570.00;4859005;29;20521;-77
2022/09/01 11:18:28;;;;;;;0.45;0.45;;;;;;;29.36;40.69;100565.94;4860529;29;20124;-77
2022/09/01 11:21:22;;;;;;;0.63;0.60;;;;;;;29.55;41.03;100571.50;4860514;29;20042;-76
2022/09/01 11:24:30;;;;;;;0.65;0.50;;;;;;;29.82;40.90;100552.00;4860390;29;20131;-76
2022/09/01 11:26:58;;;;;;;0.60;0.60;;;;;;;29.65;40.02;100567.81;4855208;29;20061;-76
2022/09/01 11:29:53;;;;;;;0.63;0.63;;;;;;;29.75;39.94;100564.13;4860208;29;20044;-77
2022/09/01 11:32:30;;;;;;;0.50;0.50;;;;;;;29.65;40.37;100559.34;4859614;29;20053;-76
2022/09/01 11:35:02;;;;;;;0.60;0.50;;;;;;;29.88;40.42;100553.16;4859978;29;20045;-77
2022/09/01 11:37:32;;;;;;;0.35;0.25;;;;;;;29.86;37.43;100551.97;4858333;29;20064;-76
2022/09/01 11:40:07;;;;;;;0.55;0.55;;;;;;;29.91;38.02;100557.16;4889779;29;20064;-76
2022/09/01 11:42:42;;;;;;;0.57;0.43;;;;;;;29.74;38.53;100545.59;4860249;29;20053;-76
2022/09/01 11:45:18;;;;;;;0.55;0.50;;;;;;;29.98;39.61;100553.47;4847310;29;20058;-76
2022/09/01 11:47:53;;;;;;;0.50;0.50;;;;;;;30.14;39.27;100552.94;4858440;29;20053;-76
2022/09/01 11:50:26;;;;;;;0.40;0.40;;;;;;;30.32;39.37;100561.25;4859998;29;20409;-76
2022/09/01 11:53:09;;;;;;;0.88;0.88;;;;;;;30.32;39.83;100561.25;4859513;29;20053;-76
2022/09/01 11:55:49;;;;;;;0.80;0.80;;;;;;;30.49;39.54;100558.69;4858612;29;20058;-76
2022/09/01 11:58:33;;;;;;;0.80;0.80;;;;;;;30.71;38.60;100553.63;4857874;29;20599;-77
2022/09/01 12:01:30;;;;;;;0.57;0.57;;;;;;;30.68;37.52;100554.44;4858356;29;20041;-77
2022/09/01 12:04:21;;;;;;;0.55;0.45;;;;;;;30.63;39.44;100560.56;4882167;29;20049;-77
2022/09/01 12:07:02;;;;;;;1.00;0.68;;;;;;;30.57;37.64;100566.66;4857934;29;20060;-78